Time;durP1;ratioP1;P1;durP2;ratioP2;P2;SDS_P1;SDS_P2;PMS_P1;PMS_P2;Temp;Humidity;BMP_temperature;BMP_pressure;BME280_temperature;BME280_humidity;BME280_pressure;Samples;Min_cycle;Max_cycle;Signal;HPM_P1;HPM_P2
2022/08/15 00:01:21;;;;;;;3.08;2.42;;;;;;;;;;5059025;28;20216;-30
2022/08/15 00:03:49;;;;;;;2.40;2.30;;;;;;;;;;5063972;28;20230;-27
2022/08/15 00:06:18;;;;;;;3.35;2.58;;;;;;;;;;5061649;28;20202;-31
2022/08/15 00:08:47;;;;;;;2.60;2.40;;;;;;;;;;5060952;28;20206;-30
2022/08/15 00:11:16;;;;;;;3.15;2.42;;;;;;;;;;5065205;28;20206;-30
2022/08/15 00:13:45;;;;;;;2.60;2.47;;;;;;;;;;5065745;28;20260;-30
2022/08/15 00:16:14;;;;;;;2.70;2.50;;;;;;;;;;5059625;28;20214;-31
2022/08/15 00:18:42;;;;;;;8.38;3.08;;;;;;;;;;5065527;28;20236;-32
2022/08/15 00:21:10;;;;;;;3.22;2.95;;;;;;;;;;5062890;28;20268;-30
2022/08/15 00:23:39;;;;;;;2.88;2.50;;;;;;;;;;5057966;28;20218;-31
2022/08/15 00:26:06;;;;;;;3.17;2.30;;;;;;;;;;5063991;28;20210;-31
2022/08/15 00:28:33;;;;;;;2.92;2.70;;;;;;;;;;5066080;28;20252;-29
2022/08/15 00:31:02;;;;;;;2.80;2.60;;;;;;;;;;5063088;28;20210;-30
2022/08/15 00:33:30;;;;;;;3.13;2.70;;;;;;;;;;5058755;28;20203;-28
2022/08/15 00:35:58;;;;;;;2.45;2.35;;;;;;;;;;5069125;28;20195;-28
2022/08/15 00:38:27;;;;;;;4.18;2.70;;;;;;;;;;5050961;28;20243;-31
2022/08/15 00:43:44;;;;;;;3.88;2.42;;;;;;;;;;5049940;28;20230;-31
2022/08/15 00:46:14;;;;;;;5.63;3.25;;;;;;;;;;5056797;28;20257;-31
2022/08/15 00:48:44;;;;;;;2.88;2.67;;;;;;;;;;5061558;28;20226;-32
2022/08/15 00:51:13;;;;;;;3.00;2.80;;;;;;;;;;5066873;28;20202;-31
2022/08/15 00:53:42;;;;;;;4.00;2.88;;;;;;;;;;5057191;28;20507;-32
2022/08/15 00:56:10;;;;;;;4.15;2.97;;;;;;;;;;5067804;28;20197;-31
2022/08/15 00:58:39;;;;;;;2.83;2.63;;;;;;;;;;5069715;28;20232;-29
2022/08/15 01:01:08;;;;;;;3.70;3.33;;;;;;;;;;5059055;28;20507;-31
2022/08/15 01:03:38;;;;;;;3.33;3.03;;;;;;;;;;5062839;28;20219;-32
2022/08/15 01:06:06;;;;;;;3.30;2.80;;;;;;;;;;5068624;28;20201;-30
2022/08/15 01:08:34;;;;;;;5.32;2.80;;;;;;;;;;5060945;28;20214;-31
2022/08/15 01:11:04;;;;;;;3.65;3.20;;;;;;;;;;5069070;28;20201;-29
2022/08/15 01:13:31;;;;;;;3.97;2.90;;;;;;;;;;5068594;28;20207;-31
2022/08/15 01:15:58;;;;;;;3.60;3.25;;;;;;;;;;5062586;28;20207;-28
2022/08/15 01:18:26;;;;;;;5.25;3.00;;;;;;;;;;5063632;28;20235;-31
2022/08/15 01:20:55;;;;;;;3.55;2.78;;;;;;;;;;5069236;28;20216;-31
2022/08/15 01:23:26;;;;;;;3.15;2.78;;;;;;;;;;5052660;28;20225;-29
2022/08/15 01:25:57;;;;;;;5.43;2.85;;;;;;;;;;5069126;28;20218;-33
2022/08/15 01:28:26;;;;;;;4.35;2.83;;;;;;;;;;5068340;28;20229;-28
2022/08/15 01:30:57;;;;;;;3.78;2.45;;;;;;;;;;5057211;28;20211;-32
2022/08/15 01:33:26;;;;;;;4.03;2.60;;;;;;;;;;5061623;28;20292;-31
2022/08/15 01:35:54;;;;;;;5.28;2.92;;;;;;;;;;5069348;28;20201;-29
2022/08/15 01:38:24;;;;;;;5.25;3.22;;;;;;;;;;5059659;28;20232;-30
2022/08/15 01:40:54;;;;;;;3.38;3.00;;;;;;;;;;5069333;28;20256;-33
2022/08/15 01:43:25;;;;;;;4.13;2.80;;;;;;;;;;5070238;28;20233;-32
2022/08/15 01:45:54;;;;;;;5.03;2.80;;;;;;;;;;5068276;28;20205;-28
2022/08/15 01:48:25;;;;;;;3.53;2.40;;;;;;;;;;5056725;28;20222;-30
2022/08/15 01:50:55;;;;;;;3.30;2.78;;;;;;;;;;5066064;28;20251;-28
2022/08/15 01:53:24;;;;;;;5.13;3.00;;;;;;;;;;5063347;28;20198;-31
2022/08/15 01:55:53;;;;;;;2.90;2.67;;;;;;;;;;5065617;28;20474;-29
2022/08/15 01:58:22;;;;;;;3.97;2.65;;;;;;;;;;5068717;28;20224;-30
2022/08/15 02:00:57;;;;;;;4.05;2.80;;;;;;;;;;5058740;28;20205;-29
2022/08/15 02:03:33;;;;;;;3.15;2.65;;;;;;;;;;5061054;28;20202;-31
2022/08/15 02:06:01;;;;;;;4.18;2.70;;;;;;;;;;5068530;28;20675;-30
2022/08/15 02:08:28;;;;;;;3.25;2.80;;;;;;;;;;5065046;28;20230;-30
2022/08/15 02:10:55;;;;;;;5.75;3.33;;;;;;;;;;5072689;28;20213;-32
2022/08/15 02:13:22;;;;;;;3.80;2.58;;;;;;;;;;5072738;28;20205;-29
2022/08/15 02:15:49;;;;;;;3.65;2.33;;;;;;;;;;5060047;28;20210;-29
2022/08/15 02:18:18;;;;;;;4.43;3.13;;;;;;;;;;5068229;28;20221;-32
2022/08/15 02:20:45;;;;;;;2.90;2.40;;;;;;;;;;5068897;28;20562;-30
2022/08/15 02:23:12;;;;;;;3.00;2.78;;;;;;;;;;5293329;22;20236;-37
2022/08/15 02:25:39;;;;;;;6.78;2.90;;;;;;;;;;5037357;28;20278;-36
2022/08/15 02:28:07;;;;;;;2.78;2.50;;;;;;;;;;5047733;28;20218;-40
2022/08/15 02:30:34;;;;;;;4.20;2.50;;;;;;;;;;5042296;28;20216;-35
2022/08/15 02:33:02;;;;;;;3.15;2.80;;;;;;;;;;5022221;28;20200;-39
2022/08/15 02:35:31;;;;;;;3.80;2.55;;;;;;;;;;5028124;28;20196;-38
2022/08/15 02:38:01;;;;;;;3.88;2.95;;;;;;;;;;5022115;28;20223;-38
2022/08/15 02:40:29;;;;;;;3.53;2.58;;;;;;;;;;5032464;28;20206;-36
2022/08/15 02:42:57;;;;;;;3.42;2.60;;;;;;;;;;5048765;28;20214;-37
2022/08/15 02:45:24;;;;;;;3.67;2.70;;;;;;;;;;5038338;28;20250;-37
2022/08/15 02:47:54;;;;;;;4.25;2.97;;;;;;;;;;5028448;28;20226;-37
2022/08/15 02:50:22;;;;;;;4.90;2.63;;;;;;;;;;5027712;28;20205;-39
2022/08/15 02:52:50;;;;;;;2.50;2.30;;;;;;;;;;5020108;28;20214;-38
2022/08/15 02:55:19;;;;;;;4.07;2.65;;;;;;;;;;5013088;28;20206;-36
2022/08/15 02:57:47;;;;;;;3.15;2.50;;;;;;;;;;5042431;28;20244;-36
2022/08/15 03:00:16;;;;;;;3.35;2.90;;;;;;;;;;5031587;28;20917;-32
2022/08/15 03:02:53;;;;;;;2.60;2.35;;;;;;;;;;5029483;28;20206;-35
2022/08/15 03:05:20;;;;;;;3.25;2.67;;;;;;;;;;5031108;28;20232;-34
2022/08/15 03:07:47;;;;;;;3.13;2.83;;;;;;;;;;5019155;28;20313;-35
2022/08/15 03:10:16;;;;;;;2.92;2.60;;;;;;;;;;5024013;28;20210;-31
2022/08/15 03:12:53;;;;;;;4.47;2.53;;;;;;;;;;5047225;28;20236;-37
2022/08/15 03:15:21;;;;;;;4.10;2.40;;;;;;;;;;5032077;28;20245;-35
2022/08/15 03:17:49;;;;;;;3.70;2.40;;;;;;;;;;5028374;28;20281;-35
2022/08/15 03:20:16;;;;;;;2.53;2.25;;;;;;;;;;5035071;28;20211;-36
2022/08/15 03:22:45;;;;;;;3.13;2.75;;;;;;;;;;5017106;28;20211;-34
2022/08/15 03:25:12;;;;;;;2.70;2.50;;;;;;;;;;5021756;28;20234;-37
2022/08/15 03:27:41;;;;;;;4.72;2.72;;;;;;;;;;5032521;28;20261;-36
2022/08/15 03:30:09;;;;;;;2.60;2.40;;;;;;;;;;5026967;28;20611;-33
2022/08/15 03:32:42;;;;;;;2.45;2.30;;;;;;;;;;5021005;28;20206;-37
2022/08/15 03:35:10;;;;;;;5.15;2.65;;;;;;;;;;5033206;28;20202;-35
2022/08/15 03:37:37;;;;;;;2.80;2.35;;;;;;;;;;5018649;28;20227;-37
2022/08/15 03:40:05;;;;;;;4.88;2.70;;;;;;;;;;5017391;28;20206;-35
2022/08/15 03:42:33;;;;;;;3.70;2.70;;;;;;;;;;5040815;28;20202;-35
2022/08/15 03:45:03;;;;;;;3.40;2.15;;;;;;;;;;5040032;28;20231;-40
2022/08/15 03:47:30;;;;;;;2.60;2.40;;;;;;;;;;5028593;28;20226;-38
2022/08/15 03:49:59;;;;;;;4.60;2.45;;;;;;;;;;5038282;28;20244;-35
2022/08/15 03:52:27;;;;;;;5.50;2.50;;;;;;;;;;5022137;28;20237;-34
2022/08/15 03:54:54;;;;;;;3.05;2.40;;;;;;;;;;5023173;28;20206;-36
2022/08/15 03:57:23;;;;;;;3.15;2.30;;;;;;;;;;5043734;28;20225;-37
2022/08/15 03:59:51;;;;;;;2.90;2.33;;;;;;;;;;5051749;28;20291;-38
2022/08/15 04:02:24;;;;;;;4.65;2.50;;;;;;;;;;5032794;28;20237;-34
2022/08/15 04:04:52;;;;;;;4.80;2.55;;;;;;;;;;5042517;28;20237;-34
2022/08/15 04:07:19;;;;;;;3.50;2.47;;;;;;;;;;5031781;28;20217;-37
2022/08/15 04:09:46;;;;;;;2.20;1.92;;;;;;;;;;5025815;28;20275;-34
2022/08/15 04:12:13;;;;;;;3.90;2.80;;;;;;;;;;5051656;28;20205;-37
2022/08/15 04:14:40;;;;;;;5.53;2.50;;;;;;;;;;5051989;28;20263;-38
2022/08/15 04:17:07;;;;;;;3.35;2.28;;;;;;;;;;5027239;28;20236;-34
2022/08/15 04:19:36;;;;;;;2.60;2.35;;;;;;;;;;5036064;28;20251;-35
2022/08/15 04:22:05;;;;;;;2.45;2.20;;;;;;;;;;5025124;28;20213;-33
2022/08/15 04:24:32;;;;;;;2.85;2.40;;;;;;;;;;5028460;28;20320;-37
2022/08/15 04:26:59;;;;;;;4.25;2.40;;;;;;;;;;5032572;28;20215;-35
2022/08/15 04:29:26;;;;;;;2.88;2.30;;;;;;;;;;5030224;28;20210;-35
2022/08/15 04:31:56;;;;;;;4.30;2.30;;;;;;;;;;5021794;28;20211;-34
2022/08/15 04:34:25;;;;;;;3.08;2.67;;;;;;;;;;5015211;28;20226;-37
2022/08/15 04:36:54;;;;;;;2.97;2.65;;;;;;;;;;5022956;28;20269;-35
2022/08/15 04:39:21;;;;;;;2.75;2.25;;;;;;;;;;5021798;28;20393;-33
2022/08/15 04:41:48;;;;;;;2.30;2.17;;;;;;;;;;5036758;28;20255;-36
2022/08/15 04:44:15;;;;;;;3.67;2.10;;;;;;;;;;5046019;28;20206;-36
2022/08/15 04:46:43;;;;;;;2.65;2.10;;;;;;;;;;5027895;28;20231;-33
2022/08/15 04:49:10;;;;;;;2.47;2.28;;;;;;;;;;5030711;28;20194;-34
2022/08/15 04:51:37;;;;;;;2.80;2.30;;;;;;;;;;5037637;28;20215;-33
2022/08/15 04:54:06;;;;;;;2.50;2.08;;;;;;;;;;5019658;28;20585;-32
2022/08/15 04:56:33;;;;;;;2.15;1.98;;;;;;;;;;5045987;28;20205;-38
2022/08/15 04:59:00;;;;;;;3.28;2.38;;;;;;;;;;5052469;28;20218;-36
2022/08/15 05:01:27;;;;;;;4.00;2.42;;;;;;;;;;5030948;28;20289;-32
2022/08/15 05:03:54;;;;;;;3.63;2.17;;;;;;;;;;5040856;28;20226;-33
2022/08/15 05:06:22;;;;;;;2.60;2.30;;;;;;;;;;5011173;28;20358;-32
2022/08/15 05:08:49;;;;;;;4.40;2.60;;;;;;;;;;5024107;28;20211;-37
2022/08/15 05:11:19;;;;;;;4.78;2.15;;;;;;;;;;5033538;28;20195;-30
2022/08/15 05:13:46;;;;;;;3.42;2.03;;;;;;;;;;5047609;28;20240;-36
2022/08/15 05:16:14;;;;;;;2.72;2.53;;;;;;;;;;5034854;28;20195;-36
2022/08/15 05:18:42;;;;;;;5.70;2.17;;;;;;;;;;5052800;28;20225;-36
2022/08/15 05:21:10;;;;;;;2.83;2.10;;;;;;;;;;5048495;28;20210;-35
2022/08/15 05:23:38;;;;;;;3.63;2.10;;;;;;;;;;5023427;28;20211;-33
2022/08/15 05:26:06;;;;;;;2.83;2.47;;;;;;;;;;5040168;28;20230;-36
2022/08/15 05:28:35;;;;;;;4.90;2.90;;;;;;;;;;5033950;28;20222;-36
2022/08/15 05:31:05;;;;;;;3.03;1.88;;;;;;;;;;5029196;28;20233;-34
2022/08/15 05:33:32;;;;;;;2.40;2.20;;;;;;;;;;5042593;28;20257;-35
2022/08/15 05:36:02;;;;;;;2.85;2.20;;;;;;;;;;5033848;28;20211;-39
2022/08/15 05:38:32;;;;;;;3.80;2.25;;;;;;;;;;5019232;28;20249;-34
2022/08/15 05:41:18;;;;;;;2.20;2.00;;;;;;;;;;5046948;28;20209;-37
2022/08/15 05:43:54;;;;;;;2.22;1.77;;;;;;;;;;5031627;28;20202;-33
2022/08/15 05:49:00;;;;;;;3.67;1.83;;;;;;;;;;5048760;22;20273;-39
2022/08/15 05:51:31;;;;;;;3.72;2.30;;;;;;;;;;5027233;28;20325;-39
2022/08/15 05:54:05;;;;;;;5.97;2.50;;;;;;;;;;5029189;28;20265;-34
2022/08/15 05:56:37;;;;;;;3.08;2.50;;;;;;;;;;5034135;28;20201;-37
2022/08/15 05:59:07;;;;;;;2.95;2.42;;;;;;;;;;5048383;28;20289;-35
2022/08/15 06:01:35;;;;;;;2.53;2.00;;;;;;;;;;5029923;28;20218;-40
2022/08/15 06:04:07;;;;;;;2.10;2.00;;;;;;;;;;5044578;28;20206;-35
2022/08/15 06:06:35;;;;;;;1.80;1.70;;;;;;;;;;5021764;28;20266;-38
2022/08/15 06:09:05;;;;;;;2.00;1.90;;;;;;;;;;5028101;28;20207;-38
2022/08/15 06:11:35;;;;;;;3.10;2.80;;;;;;;;;;5047788;28;20229;-34
2022/08/15 06:14:07;;;;;;;2.97;1.85;;;;;;;;;;5047791;28;20216;-38
2022/08/15 06:16:38;;;;;;;1.90;1.70;;;;;;;;;;5036505;28;20233;-35
2022/08/15 06:19:07;;;;;;;2.42;2.22;;;;;;;;;;5039138;28;20217;-37
2022/08/15 06:21:38;;;;;;;2.35;1.92;;;;;;;;;;5039710;28;20219;-38
2022/08/15 06:24:11;;;;;;;2.28;1.80;;;;;;;;;;5029046;28;20198;-36
2022/08/15 06:26:42;;;;;;;3.50;1.85;;;;;;;;;;5029128;28;20227;-34
2022/08/15 06:29:19;;;;;;;6.45;2.10;;;;;;;;;;5028616;28;20218;-34
2022/08/15 06:31:53;;;;;;;2.70;2.30;;;;;;;;;;5016760;28;20219;-35
2022/08/15 06:34:26;;;;;;;2.67;1.83;;;;;;;;;;5031647;28;20199;-38
2022/08/15 06:36:57;;;;;;;2.60;2.15;;;;;;;;;;5037370;28;20292;-35
2022/08/15 06:39:28;;;;;;;2.13;1.90;;;;;;;;;;5020699;28;20210;-32
2022/08/15 06:42:00;;;;;;;1.80;1.70;;;;;;;;;;5036919;28;20206;-36
2022/08/15 06:44:28;;;;;;;2.25;1.90;;;;;;;;;;5050827;28;20197;-38
2022/08/15 06:47:03;;;;;;;2.90;1.90;;;;;;;;;;5029113;28;20237;-35
2022/08/15 06:49:30;;;;;;;3.67;2.10;;;;;;;;;;5041810;28;20269;-35
2022/08/15 06:51:58;;;;;;;2.25;1.80;;;;;;;;;;5034330;28;20229;-34
2022/08/15 06:54:29;;;;;;;4.05;1.60;;;;;;;;;;5033575;28;20216;-34
2022/08/15 06:57:02;;;;;;;1.88;1.70;;;;;;;;;;5047725;28;20244;-38
2022/08/15 06:59:36;;;;;;;3.58;1.95;;;;;;;;;;5035867;28;20207;-35
2022/08/15 07:02:12;;;;;;;4.13;1.77;;;;;;;;;;5020907;28;20205;-35
2022/08/15 07:04:43;;;;;;;2.05;1.90;;;;;;;;;;5041769;28;20207;-36
2022/08/15 07:07:13;;;;;;;1.80;1.70;;;;;;;;;;5020560;28;20236;-35
2022/08/15 07:09:45;;;;;;;2.38;1.80;;;;;;;;;;5028565;28;20299;-36
2022/08/15 07:12:18;;;;;;;1.40;1.30;;;;;;;;;;5046594;28;20269;-36
2022/08/15 07:14:49;;;;;;;1.83;1.52;;;;;;;;;;5032750;28;20225;-35
2022/08/15 07:17:19;;;;;;;2.35;1.83;;;;;;;;;;5015788;28;20249;-36
2022/08/15 07:19:47;;;;;;;1.63;1.52;;;;;;;;;;5033783;28;20288;-37
2022/08/15 07:22:14;;;;;;;1.70;1.60;;;;;;;;;;5037005;28;20210;-35
2022/08/15 07:24:49;;;;;;;5.85;1.65;;;;;;;;;;5022507;28;20293;-38
2022/08/15 07:27:17;;;;;;;1.70;1.60;;;;;;;;;;5029044;28;20228;-36
2022/08/15 07:29:46;;;;;;;2.22;1.45;;;;;;;;;;5026872;28;20214;-39
2022/08/15 07:32:15;;;;;;;4.65;1.73;;;;;;;;;;5024186;28;20238;-39
2022/08/15 07:34:58;;;;;;;1.92;1.40;;;;;;;;;;5034869;28;20683;-36
2022/08/15 07:37:26;;;;;;;1.55;1.45;;;;;;;;;;5027009;28;20226;-38
2022/08/15 07:39:59;;;;;;;1.58;1.40;;;;;;;;;;5023178;28;20209;-39
2022/08/15 07:42:26;;;;;;;1.35;1.25;;;;;;;;;;5039967;28;20217;-38
2022/08/15 07:44:54;;;;;;;1.48;1.38;;;;;;;;;;5039697;28;20214;-35
2022/08/15 07:47:25;;;;;;;1.67;1.45;;;;;;;;;;5023367;28;20217;-35
2022/08/15 07:50:01;;;;;;;2.25;1.60;;;;;;;;;;5039459;28;20210;-38
2022/08/15 07:52:29;;;;;;;1.75;1.65;;;;;;;;;;5015956;28;20278;-36
2022/08/15 07:57:27;;;;;;;1.90;1.50;;;;;;;;;;4992994;28;20240;-42
2022/08/15 08:00:07;;;;;;;1.92;1.75;;;;;;;;;;4997177;28;20294;-38
2022/08/15 08:02:40;;;;;;;1.80;1.52;;;;;;;;;;4988057;28;20200;-39
2022/08/15 08:05:09;;;;;;;1.70;1.58;;;;;;;;;;4987234;28;20214;-42
2022/08/15 08:07:38;;;;;;;1.95;1.75;;;;;;;;;;4992352;28;20231;-43
2022/08/15 08:10:10;;;;;;;4.28;1.75;;;;;;;;;;4996809;28;20207;-42
2022/08/15 08:12:47;;;;;;;1.70;1.33;;;;;;;;;;5006982;28;20199;-40
2022/08/15 08:15:17;;;;;;;1.45;1.35;;;;;;;;;;4988473;28;20257;-42
2022/08/15 08:17:46;;;;;;;1.65;1.30;;;;;;;;;;4993546;28;20253;-44
2022/08/15 08:20:19;;;;;;;2.40;1.38;;;;;;;;;;4988287;28;20196;-40
2022/08/15 08:22:51;;;;;;;2.08;1.38;;;;;;;;;;4988823;28;20239;-43
2022/08/15 08:25:23;;;;;;;2.35;1.50;;;;;;;;;;4988851;28;20660;-41
2022/08/15 08:27:53;;;;;;;1.45;1.30;;;;;;;;;;5003551;28;20219;-39
2022/08/15 08:30:24;;;;;;;1.45;1.40;;;;;;;;;;4995868;28;20325;-41
2022/08/15 08:32:55;;;;;;;1.63;1.23;;;;;;;;;;4995420;28;20239;-43
2022/08/15 08:35:31;;;;;;;2.85;1.50;;;;;;;;;;4987727;28;20267;-44
2022/08/15 08:38:02;;;;;;;1.60;1.50;;;;;;;;;;4994816;28;20226;-42
2022/08/15 08:43:30;;;;;;;1.20;1.20;;;;;;;;;;5006978;28;20206;-41
2022/08/15 08:46:01;;;;;;;1.23;1.13;;;;;;;;;;5000782;28;20224;-40
2022/08/15 08:48:35;;;;;;;1.33;1.23;;;;;;;;;;4994847;28;20238;-42
2022/08/15 08:51:07;;;;;;;1.20;1.20;;;;;;;;;;4997837;28;20646;-40
2022/08/15 08:53:38;;;;;;;1.52;1.42;;;;;;;;;;4991636;28;20210;-42
2022/08/15 08:56:08;;;;;;;1.02;1.00;;;;;;;;;;4988933;28;20212;-42
2022/08/15 08:58:38;;;;;;;1.30;1.20;;;;;;;;;;5010611;28;20270;-41
2022/08/15 09:01:06;;;;;;;4.57;1.40;;;;;;;;;;5005673;28;20254;-42
2022/08/15 09:03:35;;;;;;;1.30;1.00;;;;;;;;;;4992539;28;20218;-44
2022/08/15 09:06:03;;;;;;;1.73;1.10;;;;;;;;;;5002774;28;20247;-43
2022/08/15 09:08:35;;;;;;;1.35;1.05;;;;;;;;;;4997884;28;20226;-41
2022/08/15 09:11:06;;;;;;;2.80;1.00;;;;;;;;;;5003437;28;20214;-44
2022/08/15 09:13:36;;;;;;;1.70;1.00;;;;;;;;;;4998027;28;20736;-40
2022/08/15 09:16:09;;;;;;;3.40;1.35;;;;;;;;;;4992565;28;20222;-44
2022/08/15 09:18:38;;;;;;;1.05;0.98;;;;;;;;;;4997397;28;20231;-44
2022/08/15 09:21:08;;;;;;;2.08;1.00;;;;;;;;;;5003492;28;20721;-40
2022/08/15 09:23:37;;;;;;;3.78;1.00;;;;;;;;;;4996680;28;20266;-46
2022/08/15 09:26:14;;;;;;;1.15;1.05;;;;;;;;;;5002043;28;20238;-42
2022/08/15 09:28:43;;;;;;;0.90;0.90;;;;;;;;;;5008327;28;20222;-43
2022/08/15 09:31:13;;;;;;;1.83;1.13;;;;;;;;;;5000852;28;20294;-47
2022/08/15 09:34:07;;;;;;;1.23;1.13;;;;;;;;;;5007885;28;20195;-39
2022/08/15 09:36:40;;;;;;;2.00;1.20;;;;;;;;;;4968345;28;20208;-41
2022/08/15 09:39:22;;;;;;;1.30;0.80;;;;;;;;;;4988152;28;20212;-42
2022/08/15 09:41:57;;;;;;;4.32;1.08;;;;;;;;;;4999521;28;20214;-41
2022/08/15 09:44:41;;;;;;;0.90;0.88;;;;;;;;;;4994177;28;20220;-43
2022/08/15 09:47:22;;;;;;;1.42;1.20;;;;;;;;;;4999114;28;20223;-42
2022/08/15 09:50:00;;;;;;;3.70;1.20;;;;;;;;;;5009018;28;20290;-42
2022/08/15 09:52:35;;;;;;;0.82;0.82;;;;;;;;;;5001639;28;20213;-42
2022/08/15 09:55:08;;;;;;;1.70;1.40;;;;;;;;;;5012514;28;20214;-43
2022/08/15 09:57:38;;;;;;;1.17;1.08;;;;;;;;;;5016051;28;20314;-42
2022/08/15 10:00:19;;;;;;;1.05;1.02;;;;;;;;;;5015150;28;20215;-38
2022/08/15 10:03:03;;;;;;;1.30;1.20;;;;;;;;;;5021541;28;20211;-38
2022/08/15 10:05:43;;;;;;;1.20;1.10;;;;;;;;;;4993729;28;20250;-41
2022/08/15 10:08:13;;;;;;;1.15;1.15;;;;;;;;;;5001138;28;20235;-41
2022/08/15 10:11:10;;;;;;;1.35;1.25;;;;;;;;;;5005077;28;20205;-40
2022/08/15 10:13:46;;;;;;;1.10;1.10;;;;;;;;;;4993496;28;20319;-39
2022/08/15 10:16:40;;;;;;;1.00;1.00;;;;;;;;;;4995332;28;20218;-41
2022/08/15 10:19:10;;;;;;;1.73;1.38;;;;;;;;;;5003844;28;20207;-38
2022/08/15 10:21:39;;;;;;;1.17;1.10;;;;;;;;;;5000946;28;20310;-45
2022/08/15 10:26:37;;;;;;;1.23;1.15;;;;;;;;;;5042723;28;20284;-38
2022/08/15 10:29:12;;;;;;;1.33;1.20;;;;;;;;;;5053207;28;20209;-37
2022/08/15 10:31:43;;;;;;;1.60;1.27;;;;;;;;;;5052510;28;20319;-36
2022/08/15 10:34:17;;;;;;;1.63;1.40;;;;;;;;;;5040945;28;20202;-37
2022/08/15 10:37:05;;;;;;;1.40;1.30;;;;;;;;;;5045864;28;20276;-32
2022/08/15 10:39:36;;;;;;;3.67;1.30;;;;;;;;;;5035155;28;20206;-36
2022/08/15 10:42:14;;;;;;;1.75;1.20;;;;;;;;;;5051630;28;20201;-36
2022/08/15 10:44:47;;;;;;;1.80;1.48;;;;;;;;;;5047228;28;20210;-34
2022/08/15 10:47:20;;;;;;;2.97;1.30;;;;;;;;;;5050497;28;20260;-37
2022/08/15 10:49:57;;;;;;;1.10;1.10;;;;;;;;;;5052679;28;20202;-38
2022/08/15 10:52:29;;;;;;;2.75;1.27;;;;;;;;;;5047689;28;20202;-32
2022/08/15 10:55:30;;;;;;;1.15;1.15;;;;;;;;;;5035214;28;20218;-40
2022/08/15 10:58:00;;;;;;;1.77;1.20;;;;;;;;;;4991858;28;20251;-42
2022/08/15 11:00:37;;;;;;;1.73;1.35;;;;;;;;;;4984888;28;20216;-36
2022/08/15 11:03:05;;;;;;;1.30;1.30;;;;;;;;;;5005793;28;20247;-40
2022/08/15 11:05:33;;;;;;;1.17;1.15;;;;;;;;;;5052455;28;20231;-36
2022/08/15 11:08:00;;;;;;;1.60;1.38;;;;;;;;;;5046707;28;20230;-37
2022/08/15 11:10:28;;;;;;;1.65;1.30;;;;;;;;;;5052935;28;20201;-39
2022/08/15 11:12:57;;;;;;;1.92;1.67;;;;;;;;;;5052652;28;20204;-40
2022/08/15 11:15:27;;;;;;;1.77;1.67;;;;;;;;;;5049350;28;20200;-36
2022/08/15 11:18:04;;;;;;;1.35;1.33;;;;;;;;;;5039791;28;20223;-38
2022/08/15 11:20:36;;;;;;;1.73;1.33;;;;;;;;;;5046202;28;20280;-37
2022/08/15 11:23:04;;;;;;;4.28;1.42;;;;;;;;;;5047192;28;20202;-37
2022/08/15 11:25:32;;;;;;;1.33;1.23;;;;;;;;;;5046647;28;20256;-35
2022/08/15 11:28:01;;;;;;;1.95;1.27;;;;;;;;;;5052883;28;20233;-37
2022/08/15 11:30:30;;;;;;;6.35;1.50;;;;;;;;;;5049350;28;20214;-36
2022/08/15 11:33:17;;;;;;;5.50;1.65;;;;;;;;;;5051178;28;20237;-39
2022/08/15 11:35:45;;;;;;;2.65;1.50;;;;;;;;;;5052510;28;20204;-37
2022/08/15 11:38:15;;;;;;;1.75;1.33;;;;;;;;;;5038138;28;20276;-37
2022/08/15 11:40:42;;;;;;;1.10;1.10;;;;;;;;;;5046939;28;20210;-38
2022/08/15 11:43:15;;;;;;;2.35;1.20;;;;;;;;;;5052090;28;20217;-37
2022/08/15 11:45:48;;;;;;;3.28;1.52;;;;;;;;;;5045800;28;20204;-40
2022/08/15 11:48:19;;;;;;;2.85;1.50;;;;;;;;;;5043277;28;20275;-39
2022/08/15 11:50:56;;;;;;;2.60;1.40;;;;;;;;;;5052596;28;20194;-44
2022/08/15 11:53:23;;;;;;;1.50;1.40;;;;;;;;;;5036167;28;20278;-38
2022/08/15 11:55:50;;;;;;;2.15;1.20;;;;;;;;;;5048240;28;20206;-32
2022/08/15 11:58:21;;;;;;;1.70;1.50;;;;;;;;;;5051834;28;20272;-36
2022/08/15 12:00:51;;;;;;;1.80;1.70;;;;;;;;;;5043494;28;20207;-31
2022/08/15 12:03:22;;;;;;;1.65;1.15;;;;;;;;;;5035470;28;20206;-39
2022/08/15 12:05:51;;;;;;;2.63;1.40;;;;;;;;;;5051702;28;20284;-36
2022/08/15 12:08:22;;;;;;;1.85;1.20;;;;;;;;;;5037276;28;20218;-38
2022/08/15 12:10:50;;;;;;;1.95;1.50;;;;;;;;;;5052254;28;20190;-35
2022/08/15 12:13:19;;;;;;;1.25;1.25;;;;;;;;;;5051315;28;20292;-37
2022/08/15 12:15:46;;;;;;;1.33;1.20;;;;;;;;;;5052121;28;20297;-37
2022/08/15 12:18:32;;;;;;;1.50;1.40;;;;;;;;;;5034070;28;20228;-41
2022/08/15 12:21:08;;;;;;;1.75;1.50;;;;;;;;;;5049810;28;20296;-44
2022/08/15 12:23:36;;;;;;;1.95;1.77;;;;;;;;;;5047122;28;20220;-39
2022/08/15 12:26:05;;;;;;;1.92;1.60;;;;;;;;;;5051954;28;20215;-38
2022/08/15 12:28:33;;;;;;;1.98;1.80;;;;;;;;;;5051349;28;20237;-41
2022/08/15 12:31:02;;;;;;;1.60;1.50;;;;;;;;;;5049191;28;20213;-41
2022/08/15 12:33:31;;;;;;;2.63;1.85;;;;;;;;;;5048885;28;20205;-36
2022/08/15 12:35:58;;;;;;;2.03;1.80;;;;;;;;;;5055276;28;20232;-37
2022/08/15 12:38:25;;;;;;;2.00;1.80;;;;;;;;;;5037646;28;20224;-38
2022/08/15 12:40:53;;;;;;;1.45;1.35;;;;;;;;;;5050791;28;20201;-39
2022/08/15 12:43:20;;;;;;;4.65;1.70;;;;;;;;;;5035214;28;20202;-38
2022/08/15 12:45:47;;;;;;;1.55;1.45;;;;;;;;;;5041455;28;20221;-38
2022/08/15 12:48:19;;;;;;;1.67;1.58;;;;;;;;;;5048518;28;20256;-36
2022/08/15 12:50:47;;;;;;;1.65;1.55;;;;;;;;;;5054882;28;20202;-37
2022/08/15 12:53:15;;;;;;;1.50;1.40;;;;;;;;;;5041432;28;20213;-36
2022/08/15 12:55:43;;;;;;;3.80;1.80;;;;;;;;;;5055432;28;20205;-34
2022/08/15 12:58:10;;;;;;;1.60;1.50;;;;;;;;;;5055416;28;20232;-37
2022/08/15 13:00:37;;;;;;;4.25;1.40;;;;;;;;;;5045980;28;20206;-39
2022/08/15 13:03:09;;;;;;;1.88;1.52;;;;;;;;;;5049805;28;20271;-36
2022/08/15 13:05:36;;;;;;;1.90;1.75;;;;;;;;;;5055107;28;20208;-35
2022/08/15 13:08:05;;;;;;;3.08;1.98;;;;;;;;;;5040460;28;20237;-41
2022/08/15 13:10:32;;;;;;;3.67;1.98;;;;;;;;;;5049291;28;20205;-38
2022/08/15 13:12:59;;;;;;;1.95;1.50;;;;;;;;;;5055704;28;20292;-36
2022/08/15 13:15:27;;;;;;;2.38;1.85;;;;;;;;;;5050550;28;20198;-38
2022/08/15 13:17:55;;;;;;;2.05;1.85;;;;;;;;;;5053514;28;20229;-36
2022/08/15 13:25:55;;;;;;;1.90;1.70;;;;;;;;;;5049125;28;20204;-34
2022/08/15 13:28:22;;;;;;;2.90;1.55;;;;;;;;;;5053140;28;20325;-38
2022/08/15 13:30:51;;;;;;;1.80;1.70;;;;;;;;;;5048052;28;20296;-36
2022/08/15 13:33:18;;;;;;;1.83;1.73;;;;;;;;;;5053941;28;20201;-33
2022/08/15 13:35:46;;;;;;;1.77;1.48;;;;;;;;;;5054632;28;20209;-37
2022/08/15 13:38:15;;;;;;;2.40;1.90;;;;;;;;;;5037973;28;20233;-37
2022/08/15 13:40:51;;;;;;;1.70;1.60;;;;;;;;;;5049263;28;20231;-40
2022/08/15 13:43:18;;;;;;;1.92;1.38;;;;;;;;;;5053671;28;20296;-34
2022/08/15 13:45:45;;;;;;;1.77;1.67;;;;;;;;;;5042830;28;20209;-34
2022/08/15 13:48:16;;;;;;;2.80;1.70;;;;;;;;;;5052997;28;20229;-35
2022/08/15 13:50:43;;;;;;;1.73;1.48;;;;;;;;;;5054383;28;20200;-36
2022/08/15 13:53:10;;;;;;;2.92;1.83;;;;;;;;;;5046886;28;20214;-36
2022/08/15 13:55:38;;;;;;;2.53;1.65;;;;;;;;;;5047325;28;20197;-38
2022/08/15 13:58:06;;;;;;;2.35;1.63;;;;;;;;;;5053071;28;20222;-38
2022/08/15 14:00:33;;;;;;;1.77;1.67;;;;;;;;;;5042980;28;20201;-40
2022/08/15 14:03:01;;;;;;;1.70;1.60;;;;;;;;;;5042096;28;20213;-39
2022/08/15 14:05:29;;;;;;;2.22;1.40;;;;;;;;;;5053942;28;20208;-43
2022/08/15 14:07:56;;;;;;;3.58;2.00;;;;;;;;;;5046108;28;20268;-38
2022/08/15 14:10:24;;;;;;;1.90;1.80;;;;;;;;;;5047747;28;20292;-36
2022/08/15 14:12:52;;;;;;;3.75;1.90;;;;;;;;;;5053511;28;20202;-38
2022/08/15 14:15:28;;;;;;;5.60;1.98;;;;;;;;;;5049480;28;20198;-37
2022/08/15 14:17:56;;;;;;;4.85;2.13;;;;;;;;;;5052909;28;20225;-38
2022/08/15 14:20:24;;;;;;;5.32;2.00;;;;;;;;;;5053715;28;20209;-37
2022/08/15 14:22:52;;;;;;;4.65;1.90;;;;;;;;;;5042875;28;20237;-38
2022/08/15 14:25:19;;;;;;;2.20;1.88;;;;;;;;;;5053159;28;20209;-37
2022/08/15 14:27:46;;;;;;;3.72;2.00;;;;;;;;;;5054035;28;20231;-36
2022/08/15 14:30:15;;;;;;;2.13;1.90;;;;;;;;;;5046282;28;20202;-39
2022/08/15 14:32:43;;;;;;;2.85;1.65;;;;;;;;;;5044824;28;20269;-32
2022/08/15 14:35:11;;;;;;;4.47;1.90;;;;;;;;;;5052787;28;20269;-35
2022/08/15 14:37:41;;;;;;;2.28;2.00;;;;;;;;;;5047956;28;20260;-39
2022/08/15 14:40:09;;;;;;;2.25;1.90;;;;;;;;;;5052557;28;20213;-40
2022/08/15 14:42:37;;;;;;;2.15;1.95;;;;;;;;;;5053256;28;20205;-38
2022/08/15 14:45:04;;;;;;;2.15;1.70;;;;;;;;;;5052867;28;20205;-37
2022/08/15 14:47:33;;;;;;;3.05;1.83;;;;;;;;;;5041141;28;20236;-31
2022/08/15 14:50:00;;;;;;;3.40;1.90;;;;;;;;;;5049500;28;20256;-36
2022/08/15 14:52:27;;;;;;;2.90;1.92;;;;;;;;;;5043795;28;20207;-42
2022/08/15 14:54:54;;;;;;;1.70;1.60;;;;;;;;;;5042273;28;20213;-35
2022/08/15 14:57:22;;;;;;;2.15;1.80;;;;;;;;;;5044831;28;20248;-41
2022/08/15 14:59:49;;;;;;;4.47;1.80;;;;;;;;;;5052646;28;20213;-42
2022/08/15 15:02:17;;;;;;;2.22;1.92;;;;;;;;;;5041713;28;20202;-40
2022/08/15 15:04:46;;;;;;;1.83;1.73;;;;;;;;;;5051131;28;20213;-39
2022/08/15 15:07:14;;;;;;;1.92;1.63;;;;;;;;;;5047291;28;20229;-39
2022/08/15 15:09:42;;;;;;;1.92;1.83;;;;;;;;;;5047246;28;20226;-37
2022/08/15 15:12:09;;;;;;;2.08;1.88;;;;;;;;;;5052696;28;20284;-34
2022/08/15 15:14:36;;;;;;;4.75;1.90;;;;;;;;;;5052749;28;20212;-37
2022/08/15 15:17:04;;;;;;;3.58;1.85;;;;;;;;;;5045683;28;20230;-44
2022/08/15 15:19:32;;;;;;;4.55;1.80;;;;;;;;;;5052138;28;20194;-41